createdAt,value
2017-07-30T00:01:26.482Z,2.87
2017-07-30T00:03:54.071Z,2.60
2017-07-30T00:06:21.671Z,2.87
2017-07-30T00:08:49.333Z,2.60
2017-07-30T00:11:17.090Z,3.30
2017-07-30T00:13:45.504Z,2.90
2017-07-30T00:16:13.092Z,2.47
2017-07-30T00:18:40.705Z,3.00
2017-07-30T00:21:08.327Z,3.10
2017-07-30T00:23:35.911Z,2.33
2017-07-30T00:26:04.325Z,2.83
2017-07-30T00:28:32.000Z,3.13
2017-07-30T00:30:59.601Z,2.83
2017-07-30T00:33:27.950Z,2.77
2017-07-30T00:35:55.556Z,2.60
2017-07-30T00:38:24.508Z,2.57
2017-07-30T00:40:52.097Z,2.87
2017-07-30T00:43:19.715Z,2.60
2017-07-30T00:45:47.492Z,3.20
2017-07-30T00:48:15.216Z,2.60
2017-07-30T00:50:42.848Z,2.57
2017-07-30T00:53:11.192Z,2.83
2017-07-30T00:55:38.847Z,3.00
2017-07-30T00:58:06.470Z,2.43
2017-07-30T01:00:34.831Z,3.60
2017-07-30T01:03:02.583Z,2.90
2017-07-30T01:05:30.318Z,3.50
2017-07-30T01:07:57.928Z,2.90
2017-07-30T01:10:26.282Z,3.37
2017-07-30T01:12:54.048Z,2.87
2017-07-30T01:15:21.656Z,2.97
2017-07-30T01:17:49.244Z,2.80
2017-07-30T01:20:16.937Z,2.77
2017-07-30T01:22:44.536Z,3.60
2017-07-30T01:25:12.157Z,3.30
2017-07-30T01:27:39.788Z,2.77
2017-07-30T01:30:07.372Z,3.00
2017-07-30T01:32:34.950Z,2.87
2017-07-30T01:35:03.352Z,3.03
2017-07-30T01:37:31.053Z,2.80
2017-07-30T01:39:58.640Z,2.40
2017-07-30T01:42:26.749Z,3.10
2017-07-30T01:44:54.356Z,3.27
2017-07-30T01:47:21.978Z,2.83
2017-07-30T01:49:49.598Z,2.47
2017-07-30T01:52:17.256Z,2.57
2017-07-30T01:54:44.846Z,2.90
2017-07-30T01:57:12.506Z,2.77
2017-07-30T01:59:40.853Z,3.07
2017-07-30T02:02:08.509Z,2.87
2017-07-30T02:04:36.155Z,2.73
2017-07-30T02:07:03.807Z,2.53
2017-07-30T02:09:31.410Z,2.67
2017-07-30T02:11:59.153Z,2.80
2017-07-30T02:14:26.773Z,2.70
2017-07-30T02:16:54.371Z,3.00
2017-07-30T02:19:22.050Z,3.00
2017-07-30T02:21:49.629Z,2.70
2017-07-30T02:24:17.980Z,2.73
2017-07-30T02:26:45.726Z,2.80
2017-07-30T02:29:13.358Z,3.10
2017-07-30T02:31:40.961Z,3.07
2017-07-30T02:34:08.579Z,2.47
2017-07-30T02:36:36.235Z,3.10
2017-07-30T02:39:03.840Z,2.77
2017-07-30T02:41:31.498Z,3.10
2017-07-30T02:43:59.251Z,3.03
2017-07-30T02:46:26.870Z,2.80
2017-07-30T02:48:55.354Z,2.83
2017-07-30T02:51:23.761Z,2.93
2017-07-30T02:53:51.427Z,3.20
2017-07-30T02:56:19.044Z,3.00
2017-07-30T02:58:47.425Z,3.37
2017-07-30T03:01:15.965Z,3.60
2017-07-30T03:03:43.629Z,3.17
2017-07-30T03:06:11.201Z,3.03
2017-07-30T03:08:38.786Z,3.37
2017-07-30T03:11:07.215Z,3.00
2017-07-30T03:13:34.796Z,3.17
2017-07-30T03:16:02.373Z,3.20
2017-07-30T03:18:30.086Z,3.47
2017-07-30T03:20:57.693Z,3.50
2017-07-30T03:23:26.096Z,3.77
2017-07-30T03:25:53.754Z,3.93
2017-07-30T03:28:22.126Z,3.80
2017-07-30T03:30:49.783Z,3.57
2017-07-30T03:33:17.389Z,3.40
2017-07-30T03:35:45.000Z,3.90
2017-07-30T03:38:12.706Z,3.80
2017-07-30T03:40:40.326Z,3.50
2017-07-30T03:43:08.055Z,3.53
2017-07-30T03:45:35.624Z,3.80
2017-07-30T03:48:03.235Z,3.30
2017-07-30T03:50:31.594Z,3.37
2017-07-30T03:52:59.182Z,3.70
2017-07-30T03:55:26.837Z,3.60
2017-07-30T03:57:54.451Z,3.50
2017-07-30T04:00:22.050Z,3.60
2017-07-30T04:02:50.416Z,2.70
2017-07-30T04:05:18.146Z,3.23
2017-07-30T04:07:45.711Z,3.17
2017-07-30T04:10:13.471Z,3.13
2017-07-30T04:12:41.053Z,3.20
2017-07-30T04:15:08.671Z,3.10
2017-07-30T04:17:36.318Z,3.30
2017-07-30T04:20:04.018Z,2.87
2017-07-30T04:22:31.602Z,3.00
2017-07-30T04:24:59.285Z,2.43
2017-07-30T04:27:27.663Z,3.20
2017-07-30T04:29:56.132Z,3.70
2017-07-30T04:32:23.966Z,3.10
2017-07-30T04:34:51.544Z,2.97
2017-07-30T04:37:20.119Z,2.90
2017-07-30T04:39:47.742Z,3.10
2017-07-30T04:42:15.335Z,2.67
2017-07-30T04:44:42.909Z,2.73
2017-07-30T04:47:10.589Z,3.90
2017-07-30T04:49:38.228Z,3.13
2017-07-30T04:52:06.056Z,2.60
2017-07-30T04:54:33.668Z,3.30
2017-07-30T04:57:01.361Z,3.27
2017-07-30T04:59:28.955Z,3.07
2017-07-30T05:01:56.657Z,3.07
2017-07-30T05:04:27.861Z,3.80
2017-07-30T05:06:55.480Z,4.00
2017-07-30T05:09:24.436Z,4.27
2017-07-30T05:11:52.158Z,3.90
2017-07-30T05:14:19.757Z,4.00
2017-07-30T05:16:47.438Z,3.73
2017-07-30T05:19:15.145Z,4.57
2017-07-30T05:21:42.722Z,2.60
2017-07-30T05:24:10.722Z,3.00
2017-07-30T05:26:38.402Z,3.00
2017-07-30T05:29:06.915Z,3.20
2017-07-30T05:31:34.567Z,2.70
2017-07-30T05:34:02.165Z,2.57
2017-07-30T05:36:29.750Z,2.70
2017-07-30T05:38:57.447Z,3.00
2017-07-30T05:41:25.791Z,2.90
2017-07-30T05:43:53.452Z,2.70
2017-07-30T05:46:21.089Z,2.80
2017-07-30T05:48:48.887Z,2.87
2017-07-30T05:51:16.922Z,3.10
2017-07-30T05:53:44.632Z,3.10
2017-07-30T05:56:12.343Z,2.70
2017-07-30T05:58:39.963Z,3.20
2017-07-30T06:01:08.088Z,2.70
2017-07-30T06:03:36.135Z,3.43
2017-07-30T06:06:03.825Z,2.70
2017-07-30T06:08:31.740Z,2.70
2017-07-30T06:10:59.540Z,2.90
2017-07-30T06:13:27.948Z,2.73
2017-07-30T06:15:55.685Z,2.73
2017-07-30T06:18:23.500Z,2.70
2017-07-30T06:20:51.225Z,2.60
2017-07-30T06:23:18.836Z,3.07
2017-07-30T06:25:47.195Z,3.00
2017-07-30T06:28:14.851Z,3.10
2017-07-30T06:30:42.475Z,3.00
2017-07-30T06:33:10.063Z,2.47
2017-07-30T06:35:37.671Z,2.60
2017-07-30T06:38:05.386Z,2.63
2017-07-30T06:40:33.033Z,2.73
2017-07-30T06:43:00.656Z,3.27
2017-07-30T06:45:28.389Z,2.87
2017-07-30T06:47:56.033Z,3.17
2017-07-30T06:50:23.608Z,2.80
2017-07-30T06:52:51.280Z,2.73
2017-07-30T06:55:18.989Z,2.30
2017-07-30T06:57:46.579Z,2.90
2017-07-30T07:00:14.201Z,2.40
2017-07-30T07:02:41.892Z,2.40
2017-07-30T07:05:09.490Z,2.60
2017-07-30T07:07:37.916Z,2.63
2017-07-30T07:10:05.547Z,2.60
2017-07-30T07:12:33.191Z,2.00
2017-07-30T07:15:00.797Z,2.40
2017-07-30T07:17:29.477Z,2.27
2017-07-30T07:19:58.471Z,2.23
2017-07-30T07:22:26.155Z,2.40
2017-07-30T07:24:53.738Z,2.20
2017-07-30T07:27:21.401Z,2.37
2017-07-30T07:29:49.029Z,3.00
2017-07-30T07:32:16.614Z,2.30
2017-07-30T07:34:44.188Z,2.60
2017-07-30T07:37:12.025Z,2.50
2017-07-30T07:39:39.728Z,2.57
2017-07-30T07:42:07.351Z,2.67
2017-07-30T07:44:34.994Z,2.60
2017-07-30T07:47:02.596Z,3.07
2017-07-30T07:49:30.181Z,2.67
2017-07-30T07:51:58.557Z,2.57
2017-07-30T07:54:26.966Z,2.47
2017-07-30T07:56:54.549Z,2.40
2017-07-30T07:59:22.281Z,3.00
2017-07-30T08:01:49.912Z,2.40
2017-07-30T08:04:18.333Z,2.57
2017-07-30T08:06:45.960Z,2.30
2017-07-30T08:09:14.309Z,2.70
2017-07-30T08:11:41.955Z,2.57
2017-07-30T08:14:09.569Z,2.80
2017-07-30T08:16:37.971Z,2.47
2017-07-30T08:19:06.403Z,2.40
2017-07-30T08:21:35.307Z,2.47
2017-07-30T08:24:02.995Z,2.23
2017-07-30T08:26:30.581Z,2.20
2017-07-30T08:28:58.219Z,2.30
2017-07-30T08:31:25.872Z,2.00
2017-07-30T08:33:54.260Z,2.27
2017-07-30T08:36:21.887Z,2.63
2017-07-30T08:38:49.468Z,2.37
2017-07-30T08:41:17.884Z,2.57
2017-07-30T08:43:45.602Z,2.27
2017-07-30T08:46:13.964Z,2.43
2017-07-30T08:48:41.553Z,2.20
2017-07-30T08:51:10.013Z,2.30
2017-07-30T08:53:38.417Z,2.20
2017-07-30T08:56:06.029Z,2.27
2017-07-30T08:58:33.675Z,2.27
2017-07-30T09:01:01.383Z,2.10
2017-07-30T09:03:29.744Z,1.70
2017-07-30T09:05:57.401Z,2.50
2017-07-30T09:08:25.200Z,1.83
2017-07-30T09:10:53.674Z,2.27
2017-07-30T09:13:21.343Z,2.23
2017-07-30T09:15:49.716Z,2.53
2017-07-30T09:18:18.083Z,2.20
2017-07-30T09:20:45.788Z,2.30
2017-07-30T09:23:13.377Z,2.47
2017-07-30T09:25:41.036Z,2.30
2017-07-30T09:28:08.720Z,2.40
2017-07-30T09:33:10.279Z,2.57
2017-07-30T09:35:37.958Z,2.63
2017-07-30T09:38:05.610Z,2.40
2017-07-30T09:40:33.459Z,2.50
2017-07-30T09:43:01.202Z,2.40
2017-07-30T09:45:28.896Z,2.30
2017-07-30T09:47:56.501Z,2.53
2017-07-30T09:50:24.158Z,2.07
2017-07-30T09:52:52.581Z,2.03
2017-07-30T09:55:20.210Z,2.13
2017-07-30T09:57:47.816Z,2.40
2017-07-30T10:00:15.580Z,2.40
2017-07-30T10:02:43.227Z,1.90
2017-07-30T10:05:10.822Z,2.20
2017-07-30T10:07:38.397Z,2.00
2017-07-30T10:10:06.897Z,2.43
2017-07-30T10:12:34.562Z,2.40
2017-07-30T10:15:02.159Z,2.00
2017-07-30T10:17:29.976Z,2.43
2017-07-30T10:19:58.433Z,2.63
2017-07-30T10:22:26.095Z,1.93
2017-07-30T10:24:53.737Z,2.60
2017-07-30T10:27:21.375Z,2.10
2017-07-30T10:29:48.988Z,2.60
2017-07-30T10:32:17.367Z,2.40
2017-07-30T10:34:45.001Z,2.40
2017-07-30T10:37:12.741Z,2.17
2017-07-30T10:39:41.546Z,2.33
2017-07-30T10:42:09.200Z,2.40
2017-07-30T10:44:36.814Z,2.20
2017-07-30T10:47:05.308Z,2.17
2017-07-30T10:49:32.959Z,1.77
2017-07-30T10:52:01.312Z,2.00
2017-07-30T10:54:29.045Z,2.50
2017-07-30T10:56:56.726Z,1.90
2017-07-30T10:59:24.703Z,1.97
2017-07-30T11:01:52.448Z,2.00
2017-07-30T11:04:20.123Z,2.20
2017-07-30T11:06:47.894Z,1.73
2017-07-30T11:09:16.691Z,1.83
2017-07-30T11:11:44.343Z,2.10
2017-07-30T11:14:12.007Z,2.50
2017-07-30T11:16:39.706Z,2.23
2017-07-30T11:19:08.059Z,2.47
2017-07-30T11:21:35.638Z,2.10
2017-07-30T11:24:03.709Z,2.20
2017-07-30T11:26:32.062Z,2.00
2017-07-30T11:28:59.728Z,1.83
2017-07-30T11:31:28.128Z,2.07
2017-07-30T11:33:56.564Z,1.97
2017-07-30T11:36:24.179Z,1.80
2017-07-30T11:38:51.855Z,2.27
2017-07-30T11:41:19.453Z,2.50
2017-07-30T11:43:47.046Z,2.30
2017-07-30T11:46:15.434Z,1.97
2017-07-30T11:48:43.094Z,1.97
2017-07-30T11:51:11.844Z,2.17
2017-07-30T11:53:39.579Z,1.80
2017-07-30T11:56:07.164Z,2.27
2017-07-30T11:58:34.766Z,2.00
2017-07-30T12:01:03.252Z,2.20
2017-07-30T12:03:30.834Z,2.23
2017-07-30T12:05:58.414Z,2.27
2017-07-30T12:08:26.096Z,2.10
2017-07-30T12:10:53.841Z,1.80
2017-07-30T12:13:21.441Z,1.83
2017-07-30T12:15:49.865Z,1.80
2017-07-30T12:18:17.493Z,1.80
2017-07-30T12:20:45.871Z,1.60
2017-07-30T12:23:14.259Z,1.70
2017-07-30T12:25:41.925Z,2.03
2017-07-30T12:28:10.750Z,1.80
2017-07-30T12:30:38.511Z,1.40
2017-07-30T12:33:06.222Z,1.93
2017-07-30T12:35:33.809Z,1.60
2017-07-30T12:38:01.460Z,1.50
2017-07-30T12:40:29.899Z,1.70
2017-07-30T12:42:57.492Z,1.40
2017-07-30T12:45:25.972Z,1.60
2017-07-30T12:47:53.618Z,1.63
2017-07-30T12:50:21.241Z,1.73
2017-07-30T12:52:48.867Z,1.40
2017-07-30T12:55:16.555Z,1.70
2017-07-30T12:57:44.138Z,1.67
2017-07-30T13:00:11.788Z,1.80
2017-07-30T13:02:39.552Z,1.50
2017-07-30T13:05:07.179Z,1.80
2017-07-30T13:07:34.793Z,1.60
2017-07-30T13:10:02.432Z,1.70
2017-07-30T13:12:30.024Z,1.70
2017-07-30T13:15:07.309Z,1.70
2017-07-30T13:17:38.110Z,1.60
2017-07-30T13:20:05.745Z,1.93
2017-07-30T13:22:33.320Z,1.33
2017-07-30T13:25:00.995Z,1.63
2017-07-30T13:27:32.198Z,1.40
2017-07-30T13:30:00.107Z,1.50
2017-07-30T13:32:27.692Z,1.37
2017-07-30T13:34:55.327Z,1.30
2017-07-30T13:37:22.958Z,1.37
2017-07-30T13:39:50.575Z,1.40
2017-07-30T13:42:18.193Z,1.40
2017-07-30T13:44:45.811Z,1.70
2017-07-30T13:47:13.447Z,1.30
2017-07-30T13:49:41.076Z,1.33
2017-07-30T13:52:08.724Z,1.37
2017-07-30T13:54:36.340Z,1.20
2017-07-30T13:57:03.966Z,1.40
2017-07-30T13:59:31.544Z,1.67
2017-07-30T14:01:59.205Z,1.60
2017-07-30T14:04:26.829Z,1.63
2017-07-30T14:06:55.182Z,1.37
2017-07-30T14:09:22.863Z,1.37
2017-07-30T14:11:51.317Z,1.40
2017-07-30T14:14:18.900Z,1.40
2017-07-30T14:16:47.276Z,1.53
2017-07-30T14:19:14.971Z,1.70
2017-07-30T14:21:42.572Z,1.50
2017-07-30T14:24:10.153Z,1.90
2017-07-30T14:26:37.857Z,1.60
2017-07-30T14:29:05.442Z,1.70
2017-07-30T14:31:33.028Z,1.30
2017-07-30T14:34:00.643Z,1.40
2017-07-30T14:36:28.321Z,1.50
2017-07-30T14:38:56.027Z,1.53
2017-07-30T14:41:23.807Z,1.37
2017-07-30T14:43:51.887Z,1.60
2017-07-30T14:46:19.513Z,1.70
2017-07-30T14:48:47.127Z,1.60
2017-07-30T14:51:14.725Z,1.40
2017-07-30T14:53:42.361Z,1.30
2017-07-30T14:56:09.965Z,1.50
2017-07-30T14:58:37.596Z,1.10
2017-07-30T15:01:05.255Z,1.40
2017-07-30T15:03:32.886Z,1.13
2017-07-30T15:06:00.466Z,1.33
2017-07-30T15:08:28.169Z,1.20
2017-07-30T15:10:55.794Z,1.17
2017-07-30T15:13:23.377Z,1.10
2017-07-30T15:15:50.979Z,1.60
2017-07-30T15:18:19.399Z,1.20
2017-07-30T15:20:46.982Z,1.30
2017-07-30T15:23:14.620Z,1.17
2017-07-30T15:25:42.248Z,1.20
2017-07-30T15:28:09.842Z,1.00
2017-07-30T15:30:37.455Z,1.20
2017-07-30T15:33:05.895Z,1.07
2017-07-30T15:35:33.579Z,1.30
2017-07-30T15:38:01.190Z,1.20
2017-07-30T15:40:28.812Z,1.30
2017-07-30T15:42:57.154Z,1.27
2017-07-30T15:45:24.757Z,1.00
2017-07-30T15:47:53.128Z,1.23
2017-07-30T15:50:20.715Z,1.10
2017-07-30T15:52:48.358Z,1.20
2017-07-30T15:55:16.816Z,1.20
2017-07-30T15:57:44.389Z,1.30
2017-07-30T16:00:12.748Z,1.10
2017-07-30T16:02:40.445Z,1.20
2017-07-30T16:05:08.053Z,1.20
2017-07-30T16:07:35.648Z,1.13
2017-07-30T16:10:03.326Z,1.40
2017-07-30T16:12:31.682Z,1.30
2017-07-30T16:14:59.291Z,1.20
2017-07-30T16:17:26.916Z,1.47
2017-07-30T16:19:55.297Z,1.50
2017-07-30T16:22:23.727Z,1.47
2017-07-30T16:24:51.336Z,1.37
2017-07-30T16:27:19.768Z,1.07
2017-07-30T16:29:47.400Z,1.80
2017-07-30T16:32:15.103Z,1.80
2017-07-30T16:34:42.773Z,1.40
2017-07-30T16:37:10.375Z,1.57
2017-07-30T16:39:38.854Z,1.47
2017-07-30T16:42:07.201Z,1.40
2017-07-30T16:44:34.807Z,1.30
2017-07-30T16:47:02.483Z,1.40
2017-07-30T16:49:30.142Z,1.50
2017-07-30T16:51:57.721Z,1.77
2017-07-30T16:54:25.340Z,1.50
2017-07-30T16:56:53.148Z,1.53
2017-07-30T16:59:21.875Z,1.93
2017-07-30T17:01:50.270Z,2.20
2017-07-30T17:04:18.637Z,1.53
2017-07-30T17:06:46.307Z,1.63
2017-07-30T17:09:14.928Z,1.80
2017-07-30T17:11:42.518Z,1.50
2017-07-30T17:14:10.150Z,1.67
2017-07-30T17:16:37.856Z,1.60
2017-07-30T17:19:05.455Z,1.50
2017-07-30T17:21:33.116Z,2.17
2017-07-30T17:24:00.950Z,2.13
2017-07-30T17:26:28.577Z,2.00
2017-07-30T17:28:56.187Z,2.50
2017-07-30T17:31:24.592Z,2.07
2017-07-30T17:33:52.217Z,2.00
2017-07-30T17:36:20.565Z,2.23
2017-07-30T17:38:48.179Z,2.43
2017-07-30T17:41:15.889Z,2.00
2017-07-30T17:43:43.483Z,2.27
2017-07-30T17:46:11.894Z,2.20
2017-07-30T17:48:40.964Z,2.50
2017-07-30T17:51:09.544Z,2.17
2017-07-30T17:53:37.235Z,1.90
2017-07-30T17:56:04.833Z,2.40
2017-07-30T17:58:33.228Z,2.40
2017-07-30T18:01:02.020Z,2.33
2017-07-30T18:03:31.322Z,2.03
2017-07-30T18:05:59.697Z,1.93
2017-07-30T18:08:28.195Z,1.63
2017-07-30T18:10:56.010Z,2.40
2017-07-30T18:13:24.119Z,2.30
2017-07-30T18:15:52.743Z,2.37
2017-07-30T18:18:20.597Z,2.43
2017-07-30T18:20:48.947Z,2.07
2017-07-30T18:23:16.566Z,2.37
2017-07-30T18:25:44.209Z,2.23
2017-07-30T18:28:11.929Z,2.10
2017-07-30T18:30:39.549Z,2.23
2017-07-30T18:33:07.157Z,2.67
2017-07-30T18:35:34.759Z,2.20
2017-07-30T18:38:02.408Z,2.27
2017-07-30T18:40:30.085Z,2.03
2017-07-30T18:42:57.734Z,2.33
2017-07-30T18:45:25.657Z,2.20
2017-07-30T18:47:54.165Z,2.43
2017-07-30T18:50:21.856Z,2.17
2017-07-30T18:52:50.694Z,2.27
2017-07-30T18:55:19.448Z,2.33
2017-07-30T18:57:47.323Z,2.07
2017-07-30T19:00:18.370Z,3.50
2017-07-30T19:02:46.372Z,3.60
2017-07-30T19:05:14.325Z,3.60
2017-07-30T19:07:42.326Z,3.70
2017-07-30T19:10:10.357Z,2.97
2017-07-30T19:12:38.311Z,2.73
2017-07-30T19:15:06.265Z,2.40
2017-07-30T19:17:34.210Z,3.73
2017-07-30T19:20:02.350Z,3.70
2017-07-30T19:22:30.353Z,3.77
2017-07-30T19:24:58.364Z,3.60
2017-07-30T19:27:27.498Z,3.47
2017-07-30T19:29:55.709Z,3.13
2017-07-30T19:32:23.765Z,2.97
2017-07-30T19:34:51.653Z,3.07
2017-07-30T19:37:19.994Z,3.17
2017-07-30T19:39:47.913Z,3.80
2017-07-30T19:42:15.958Z,3.50
2017-07-30T19:44:45.948Z,3.93
2017-07-30T19:47:14.523Z,3.80
2017-07-30T19:49:43.512Z,3.40
2017-07-30T19:52:11.513Z,3.23
2017-07-30T19:54:40.351Z,3.00
2017-07-30T19:57:10.364Z,2.90
2017-07-30T19:59:40.170Z,3.00
2017-07-30T20:02:07.890Z,2.93
2017-07-30T20:04:36.369Z,2.87
2017-07-30T20:07:04.980Z,2.53
2017-07-30T20:09:32.579Z,2.60
2017-07-30T20:12:00.149Z,2.30
2017-07-30T20:14:27.814Z,2.47
2017-07-30T20:16:55.483Z,2.33
2017-07-30T20:19:23.144Z,2.23
2017-07-30T20:21:50.817Z,2.90
2017-07-30T20:24:18.586Z,2.90
2017-07-30T20:26:46.961Z,2.53
2017-07-30T20:29:15.435Z,2.60
2017-07-30T20:31:43.078Z,2.60
2017-07-30T20:34:10.658Z,3.10
2017-07-30T20:36:38.386Z,3.20
2017-07-30T20:39:06.077Z,3.50
2017-07-30T20:41:33.674Z,3.40
2017-07-30T20:44:01.347Z,2.90
2017-07-30T20:46:28.948Z,3.10
2017-07-30T20:48:56.554Z,3.77
2017-07-30T20:51:24.168Z,2.83
2017-07-30T20:53:52.040Z,2.63
2017-07-30T20:56:19.689Z,2.80
2017-07-30T20:58:47.304Z,2.70
2017-07-30T21:01:14.921Z,3.33
2017-07-30T21:03:42.558Z,3.43
2017-07-30T21:06:10.271Z,4.10
2017-07-30T21:08:38.635Z,3.50
2017-07-30T21:11:06.295Z,3.83
2017-07-30T21:13:33.936Z,3.50
2017-07-30T21:16:01.552Z,4.20
2017-07-30T21:18:29.193Z,3.57
2017-07-30T21:20:57.649Z,4.33
2017-07-30T21:23:25.266Z,4.07
2017-07-30T21:25:53.033Z,3.90
2017-07-30T21:28:20.699Z,4.33
2017-07-30T21:30:48.352Z,4.23
2017-07-30T21:33:15.938Z,4.67
2017-07-30T21:35:43.649Z,4.27
2017-07-30T21:38:12.151Z,4.13
2017-07-30T21:40:39.868Z,4.20
2017-07-30T21:43:07.554Z,4.30
2017-07-30T21:45:35.928Z,3.90
2017-07-30T21:48:03.531Z,4.30
2017-07-30T21:50:31.159Z,3.33
2017-07-30T21:52:59.519Z,3.50
2017-07-30T21:55:27.153Z,4.10
2017-07-30T21:57:54.781Z,3.87
2017-07-30T22:00:22.420Z,3.90
2017-07-30T22:02:50.792Z,3.70
2017-07-30T22:05:18.480Z,3.53
2017-07-30T22:07:46.092Z,3.90
2017-07-30T22:10:13.770Z,3.30
2017-07-30T22:12:41.391Z,3.40
2017-07-30T22:15:09.039Z,4.17
2017-07-30T22:17:36.644Z,3.33
2017-07-30T22:20:04.291Z,3.37
2017-07-30T22:22:31.874Z,4.00
2017-07-30T22:24:59.459Z,4.10
2017-07-30T22:27:27.880Z,3.63
2017-07-30T22:29:55.492Z,4.20
2017-07-30T22:32:23.859Z,5.00
2017-07-30T22:34:51.533Z,4.30
2017-07-30T22:37:19.929Z,3.63
2017-07-30T22:39:47.628Z,5.83
2017-07-30T22:42:15.256Z,5.60
2017-07-30T22:44:42.903Z,5.37
2017-07-30T22:47:11.305Z,5.07
2017-07-30T22:49:38.942Z,4.93
2017-07-30T22:52:07.310Z,5.00
2017-07-30T22:54:35.698Z,5.23
2017-07-30T22:57:04.128Z,4.70
2017-07-30T22:59:31.706Z,5.63
2017-07-30T23:01:59.305Z,4.97
2017-07-30T23:04:27.691Z,4.80
2017-07-30T23:06:55.668Z,4.60
2017-07-30T23:09:23.395Z,5.10
2017-07-30T23:11:51.029Z,4.80
2017-07-30T23:14:18.712Z,4.00
2017-07-30T23:16:46.395Z,3.90
2017-07-30T23:19:14.776Z,4.10
2017-07-30T23:21:43.142Z,3.00
2017-07-30T23:24:10.792Z,3.27
2017-07-30T23:26:38.407Z,3.30
2017-07-30T23:29:06.002Z,3.80
2017-07-30T23:31:33.652Z,3.17
2017-07-30T23:34:01.416Z,2.77
2017-07-30T23:36:29.007Z,3.00
2017-07-30T23:38:56.607Z,2.53
2017-07-30T23:41:24.427Z,3.20
2017-07-30T23:43:52.006Z,2.73
2017-07-30T23:46:19.589Z,3.60
2017-07-30T23:48:47.271Z,3.23
2017-07-30T23:51:14.935Z,3.43
2017-07-30T23:53:42.546Z,3.83
2017-07-30T23:56:10.210Z,3.13
2017-07-30T23:58:37.805Z,3.90
